Tiempo atmosférico en la estación meteorológica de Vitigudino, Salamanca (769 m.)



Fecha
DESCASC
Temp. máxima en grados centígrados (hora)
DESCASC
Temp. mínima en grados centígrados (hora)
DESCASC
Temp. media en grados centígrados
DESCASC
Racha de viento máxima en m/sg (hora)
DESCASC
Velocidad máxima media en intervalos de 10 minutos(hora)
DESCASC
Precipitaciones diarias en mm
DESCASC
Precipitaciones de 00:00 a 06:00 en mm
DESCASC
Precipitaciones de 06:00 a 12:00 en mm
DESCASC
Precipitaciones de 12:00 a 18:00 en mm
DESCASC
Precipitaciones de 18:00 a 24:00 en mm
DESCASC
15-08-2019 35.3 (18:00) 14.5 (07:00) 24.9 8.33 (19:20) 5 (19:30) 0 0 0 0 0
14-08-2019 34.1 (17:10) 11.4 (00:00) 22.7 10.56 (17:20) 5.56 (18:10) 0 0 0 0 0
13-08-2019 30.1 (18:10) 9.7 (00:00) 19.9 7.78 (13:10) 5.28 (07:00) 0 0 0 0 0
12-08-2019 25 (17:10) 7.2 (00:00) 16.1 10 (13:20) 5.28 (11:10) 0 0 0 0 0
11-08-2019 25.3 (17:20) 11.3 (00:00) 18.3 10.83 (16:20) 6.39 (15:50) 1.6 1.4 0.2 0 0
10-08-2019 29.1 (17:20) 12.3 (00:00) 20.7 9.44 (16:50) 5.56 (18:40) 0 0 0 0 0
09-08-2019 27.7 (17:20) 15.1 (00:00) 21.4 13.61 (15:50) 8.33 (17:40) 1.6 0 1.6 0 0
08-08-2019 30.5 (17:30) 18.8 (00:00) 24.6 14.44 (17:40) 9.44 (17:40) 0 0 0 0 0
07-08-2019 27 (19:10) 14.9 (00:00) 20.9 9.44 (16:10) 6.39 (16:10) 0 0 0 0 0
06-08-2019 34.1 (16:10) 14.5 (00:00) 24.3 9.72 (19:10) 6.67 (19:10) 0 0 0 0 0
05-08-2019 34.7 (17:10) 13.3 (00:00) 24 8.61 (16:00) 5 (19:00) 0 0 0 0 0
04-08-2019 34.9 (17:30) 14.5 (00:00) 24.7 9.44 (16:30) 6.11 (21:20) 0 0 0 0 0
03-08-2019 35.5 (17:00) 14.4 (00:00) 24.9 10.56 (20:20) 7.22 (20:20) 0 0 0 0 0
02-08-2019 34.9 (17:20) 12.7 (00:00) 23.8 8.06 (16:50) 3.61 (19:00) 0 0 0 0 0
01-08-2019 33.2 (16:30) 12.4 (00:00) 22.8 8.33 (16:30) 5 (15:30) 0 0 0 0 0
31-07-2019 29.1 (16:00) 11 (00:00) 20.1 10 (12:50) 6.67 (08:20) 0 0 0 0 0
30-07-2019 27.3 (18:30) 7.3 (00:00) 17.3 9.44 (19:40) 5.28 (01:10) 0 0 0 0 0
29-07-2019 27.7 (16:30) 10.9 (00:00) 19.3 12.5 (18:30) 6.94 (18:30) 0 0 0 0 0
28-07-2019 31 (17:10) 11.8 (00:00) 21.4 8.33 (17:20) 4.72 (09:40) 0 0 0 0 0
27-07-2019 28 (18:40) 10.7 (00:00) 19.3 11.39 (16:10) 6.67 (00:50) 0.8 0 0.8 0 0
26-07-2019 27.9 (17:00) 10.1 (00:00) 19 11.39 (16:20) 7.22 (12:50) 0 0 0 0 0
25-07-2019 33.3 (16:00) 14.8 (00:00) 24 12.5 (15:00) 7.5 (19:10) 0 0 0 0 0
24-07-2019 34.9 (17:40) 17.5 (00:00) 26.2 11.67 (14:00) 6.94 (16:10) 0 0 0 0 0
23-07-2019 35.5 (16:20) 19.2 (00:00) 27.4 13.61 (03:50) 6.94 (03:50) 2.6 2.6 0 0 0
22-07-2019 39.5 (17:40) 18.1 (00:00) 28.8 12.78 (18:10) 7.78 (18:20) 0.6 0 0 0 0.6
21-07-2019 37.2 (18:00) 15.1 (00:00) 26.2 6.94 (18:10) 5 (18:20) 0 0 0 0 0
20-07-2019 34.5 (18:20) 14.3 (00:00) 24.4 8.06 (20:50) 5.28 (18:30) 0 0 0 0 0
19-07-2019 36.7 (16:40) 14.6 (00:00) 25.7 10 (20:50) 6.11 (20:50) 0 0 0 0 0

Gráficas

Temp. máximas Temp. mínimas Temp. medias Precipitaciones Rachas de viento máximas Velocidades máximas media en intervalos de 10 minutos

Datos horarios

Fecha y hora oficial Temperatura (ºC) Velocidad del viento (km/h) Dirección del viento Racha (km/h) Dirección de racha Precipitación (mm) Presión (hPa) Tendencia (hPa) Humedad (%)
2019-08-17 23:00:00 23.2 12 Oeste 17 Oeste 0 927.4 1.2 41
2019-08-17 22:00:00 25.8 13 Oeste 21 Oeste 0 926.8 0.1 32
2019-08-17 21:00:00 29.4 10 Oeste 24 Oeste 0 926.2 -0.9 22
2019-08-17 20:00:00 33.5 14 Oeste 24 Oeste 0 926.2 -1.2 16
2019-08-17 19:00:00 34.7 13 Oeste 28 Oeste 0 926.7 -1.2 13
2019-08-17 18:00:00 35.7 13 Oeste 30 Oeste 0 927.1 -1.4 14
2019-08-17 17:00:00 35.1 9 Oeste 37 Oeste 0 927.4 -1.6 14
2019-08-17 16:00:00 35.3 10 Oeste 28 Oeste 0 927.9 -1.6 15
2019-08-17 15:00:00 33.5 10 Sudoeste 26 Oeste 0 928.5 -1.5 15
2019-08-17 14:00:00 32.5 9 Sudoeste 26 Oeste 0 929 -1.3 21
2019-08-17 13:00:00 30.9 10 Noroeste 20 Noroeste 0 929.5 -0.8 23
2019-08-17 12:00:00 28.2 8 Oeste 19 Oeste 0 930 -0.2 32
2019-08-17 11:00:00 25.2 7 Oeste 15 Oeste 0 930.3 0.5 39
2019-08-17 10:00:00 21.8 8 Oeste 14 Sudoeste 0 930.3 0.4 52
2019-08-17 09:00:00 16.5 7 Sudoeste 9 Sudoeste 0 930.2 0.4 67
2019-08-17 08:00:00 12.5 3 Sur 6 Sur 0 929.8 -0.1 76
2019-08-17 07:00:00 12.6 4 Sur 6 Sur 0 929.9 -0.3 72
2019-08-17 06:00:00 13.2 4 Sudoeste 8 Sudoeste 0 929.8 -0.7 71
2019-08-17 05:00:00 14.7 3 Sur 9 Sur 0 929.9 -0.8 64
2019-08-17 04:00:00 15.2 4 Sur 10 Sur 0 930.2 -0.4 63
2019-08-17 03:00:00 16.4 7 Sudoeste 9 Sudoeste 0 930.5 0 59
2019-08-17 02:00:00 17.7 5 Oeste 14 Oeste 0 930.7 0.5 54
2019-08-17 01:00:00 19.1 11 Oeste 17 Oeste 0 930.6 0.8 49
2019-08-17 00:00:00 20.4 5 Oeste 17 Oeste 0 930.5 1.2 43
2019-08-16 23:00:00 22.3 13 Oeste 18 Noroeste 0 930.2 1.3 39
2019-08-16 22:00:00 24.7 12 Oeste 31 Oeste 0 929.8 0.7 32
2019-08-16 21:00:00 28.6 22 Oeste 29 Oeste 0 929.3 -0.2 26
2019-08-16 20:00:00 32.7 16 Oeste 28 Oeste 0 928.9 -0.8 14
2019-08-16 19:00:00 34.6 19 Oeste 30 Oeste 0 929.1 -0.9 14
2019-08-16 18:00:00 35.6 17 Oeste 29 Noroeste 0 929.5 -0.8 12
2019-08-16 17:00:00 35.2 15 Oeste 27 Oeste 0 929.7 -1 12
2019-08-16 16:00:00 34.9 12 Oeste 29 Oeste 0 930 -1.3 12
2019-08-16 15:00:00 34.1 12 Oeste 25 Oeste 0 930.3 -1.3 14
2019-08-16 14:00:00 31.4 8 Sudoeste 22 Sudoeste 0 930.7 -0.8 23
2019-08-16 13:00:00 30.1 8 Oeste 18 Oeste 0 931.3 -0.4 28
2019-08-16 12:00:00 28 9 Oeste 18 Oeste 0 931.6 0 34
2019-08-16 11:00:00 25 6 Noroeste 12 Noroeste 0 931.5 0.4 41
2019-08-16 10:00:00 21.4 6 Norte 14 Norte 0 931.7 0.6 50
2019-08-16 09:00:00 19.1 7 Norte 12 Norte 0 931.6 0.6 59
2019-08-16 08:00:00 15.6 5 Nordeste 10 Nordeste 0 931.1 -0.1 75
2019-08-16 07:00:00 15.6 6 Nordeste 7 Nordeste 0 931.1 -0.3 73
2019-08-16 06:00:00 16.6 5 Nordeste 13 Noroeste 0 931 -0.5 70
2019-08-16 05:00:00 17.1 8 Noroeste 11 Noroeste 0 931.2 -0.6 68
2019-08-16 04:00:00 17.5 0 Calma 13 Este 0 931.4 -0.5 67
2019-08-16 03:00:00 18.5 5 Noroeste 9 Noroeste 0 931.5 -0.3 62
2019-08-16 02:00:00 19.5 9 Noroeste 11 Noroeste 0 931.8 0 59
2019-08-16 01:00:00 21 7 Noroeste 13 Noroeste 0 931.9 0.7 54
2019-08-16 00:00:00 22 10 Noroeste 14 Noroeste 0 931.8 1 50
2019-08-15 23:00:00 23.7 10 Noroeste 18 Noroeste 0 931.8 1.2 43
2019-08-15 22:00:00 25.8 11 Noroeste 16 Noroeste 0 931.2 0.6 33
2019-08-15 21:00:00 28.4 10 Noroeste 24 Noroeste 0 930.8 0 27
2019-08-15 20:00:00 31.4 14 Noroeste 30 Oeste 0 930.6 -0.5 22
2019-08-15 19:00:00 34.3 15 Oeste 28 Oeste 0 930.6 -1.1 20
2019-08-15 18:00:00 34.9 12 Oeste 29 Noroeste 0 930.8 -1.3 16
2019-08-15 17:00:00 34.8 10 Oeste 21 Oeste 0 931.1 -1.6 15
2019-08-15 16:00:00 33.1 6 Sudeste 17 Norte 0 931.7 -1.3 16
2019-08-15 15:00:00 31.8 8 Norte 17 Norte 0 932.1 -1.3 19
2019-08-15 14:00:00 30.2 6 Nordeste 19 Norte 0 932.7 -0.7 21
2019-08-15 13:00:00 29.7 8 Nordeste 22 Norte 0 933 -0.2 23
2019-08-15 12:00:00 28.2 9 Nordeste 23 Nordeste 0 933.4 0.2 24
2019-08-15 11:00:00 25.8 16 Nordeste 27 Este 0 933.4 0.3 32
2019-08-15 10:00:00 22.9 15 Este 24 Este 0 933.2 0.3 50
2019-08-15 09:00:00 18.4 8 Este 13 Este 0 933.2 0.4 76
2019-08-15 08:00:00 15.3 8 Nordeste 11 Nordeste 0 933.1 0.5 90
2019-08-15 07:00:00 14.8 6 Nordeste 8 Este 0 932.9 0.4 89
2019-08-15 06:00:00 14.8 3 Nordeste 6 Sur 0 932.8 0.1 84
2019-08-15 05:00:00 15.5 3 Nordeste 8 Oeste 0 932.6 0.1 83
2019-08-15 04:00:00 16.5 7 Oeste 15 Oeste 0 932.5 -0.2 79
2019-08-15 03:00:00 17.7 4 Sur 17 Oeste 0 932.7 0 77
2019-08-15 02:00:00 19.1 14 Noroeste 22 Oeste 0 932.5 -0.2 72
2019-08-15 01:00:00 20.2 4 Sudoeste 15 Noroeste 0 932.7 0.7 64
2019-08-15 00:00:00 21.4 5 Noroeste 12 Noroeste 0 932.7 1.2 58
2019-08-14 23:00:00 23 9 Noroeste 16 Noroeste 0 932.7 1.5 52
2019-08-14 22:00:00 24.6 9 Noroeste 22 Noroeste 0 932 0.6 45
2019-08-14 21:00:00 27.3 13 Noroeste 25 Noroeste 0 931.5 0 36
2019-08-14 20:00:00 30.5 15 Oeste 28 Oeste 0 931.2 -0.4 27
2019-08-14 19:00:00 31.8 17 Noroeste 29 Noroeste 0 931.4 -0.8 24
2019-08-14 18:00:00 32 15 Noroeste 38 Noroeste 0 931.5 -1.2 23
2019-08-14 17:00:00 33.8 13 Oeste 32 Oeste 0 931.6 -1.3 20
2019-08-14 16:00:00 32.8 13 Sudoeste 29 Oeste 0 932.2 -0.9 20
2019-08-14 15:00:00 32.3 14 Oeste 26 Oeste 0 932.7 -0.8 20
2019-08-14 14:00:00 30.8 12 Oeste 25 Oeste 0 932.9 -0.7 21
2019-08-14 13:00:00 29.2 8 Oeste 20 Oeste 0 933.1 -0.3 22
2019-08-14 12:00:00 26.7 9 Oeste 17 Oeste 0 933.5 0 27
2019-08-14 11:00:00 24.5 6 Noroeste 15 Noroeste 0 933.6 0.6 32
2019-08-14 10:00:00 20.5 3 Sur 7 Oeste 0 933.4 0.7 36
2019-08-14 09:00:00 16.4 2 Sudoeste 5 Sur 0 933.5 1 43
2019-08-14 08:00:00 12 0 Calma 5 Este 0 933 0.7 54
2019-08-14 07:00:00 11.9 0 Calma 6 Noroeste 0 932.7 -0.1 53
2019-08-14 06:00:00 12.4 0 Calma 9 Noroeste 0 932.5 -0.4 50
2019-08-14 05:00:00 12.7 2 Sudoeste 3 Oeste 0 932.3 -0.6 44
2019-08-14 04:00:00 12.7 0 Calma 3 Sudeste 0 932.8 0.2 42
2019-08-14 03:00:00 13.8 2 Este 7 Este 0 932.9 0.4 40
2019-08-14 02:00:00 15.4 4 Nordeste 11 Noroeste 0 932.9 0.4 34
2019-08-14 01:00:00 16.7 9 Norte 18 Oeste 0 932.6 0.6 30
2019-08-14 00:00:00 18.3 5 Norte 12 Noroeste 0 932.5 0.9 28
2019-08-13 23:00:00 19.6 9 Noroeste 13 Noroeste 0 932.5 1 27
2019-08-13 22:00:00 20.9 8 Noroeste 13 Noroeste 0 932 0.5 24
2019-08-13 21:00:00 24.3 9 Noroeste 16 Noroeste 0 931.6 0.1 20
2019-08-13 20:00:00 27.1 10 Noroeste 18 Oeste 0 931.5 -0.4 15
2019-08-13 19:00:00 29 11 Oeste 22 Noroeste 0 931.5 -0.8 14
2019-08-13 18:00:00 29.8 8 Oeste 23 Noroeste 0 931.5 -1.1 14
2019-08-13 17:00:00 29.3 5 Norte 21 Nordeste 0 931.9 -1.2 14
2019-08-13 16:00:00 28.3 5 Sudeste 17 Sudoeste 0 932.3 -1.2 15
2019-08-13 15:00:00 26.8 9 Este 21 Nordeste 0 932.6 -1.1 17
2019-08-13 14:00:00 25.8 11 Nordeste 28 Este 0 933.1 -0.7 19
2019-08-13 13:00:00 24.5 10 Este 26 Este 0 933.5 0 25
2019-08-13 12:00:00 22.2 15 Este 27 Nordeste 0 933.7 0.3 32
2019-08-13 11:00:00 19 13 Nordeste 23 Nordeste 0 933.8 0.9 41
2019-08-13 10:00:00 16 17 Nordeste 28 Nordeste 0 933.5 1.2 51
2019-08-13 09:00:00 12.7 15 Nordeste 26 Nordeste 0 933.4 0.9 65
2019-08-13 08:00:00 9.9 14 Nordeste 22 Nordeste 0 932.9 0.3 76
2019-08-13 07:00:00 10.1 19 Nordeste 26 Nordeste 0 932.3 -0.3 74
2019-08-13 06:00:00 10.5 17 Nordeste 26 Nordeste 0 932.5 -0.3 72
2019-08-13 05:00:00 11.1 15 Nordeste 25 Nordeste 0 932.6 -0.5 69
2019-08-13 04:00:00 11.7 17 Nordeste 24 Nordeste 0 932.6 -0.6 62
2019-08-13 03:00:00 12.5 14 Nordeste 21 Nordeste 0 932.8 -0.3 50
2019-08-13 02:00:00 13.3 11 Nordeste 24 Nordeste 0 933.1 0.1 44
2019-08-13 01:00:00 14.1 10 Nordeste 15 Nordeste 0 933.2 0.8 39
2019-08-13 00:00:00 14.7 9 Nordeste 14 Nordeste 0 933.1 1.2 35
2019-08-12 23:00:00 16.3 9 Nordeste 13 Norte 0 933 1.3 30
2019-08-12 22:00:00 18.7 7 Nordeste 17 Nordeste 0 932.4 0.6 26
2019-08-12 21:00:00 21.3 10 Nordeste 21 Nordeste 0 931.9 -0.1 20
2019-08-12 20:00:00 21.9 11 Nordeste 24 Nordeste 0 931.7 -0.6 18
2019-08-12 19:00:00 23 15 Norte 27 Nordeste 0 931.8 -0.9 18
2019-08-12 18:00:00 24.6 13 Norte 27 Norte 0 932 -1.1 19
2019-08-12 17:00:00 24.3 12 Norte 31 Norte 0 932.3 -1.3 20
2019-08-12 16:00:00 23.9 12 Nordeste 36 Nordeste 0 932.7 -1.2 21
2019-08-12 15:00:00 23.6 17 Nordeste 29 Nordeste 0 933.1 -0.9 22
2019-08-12 14:00:00 22.4 17 Nordeste 36 Nordeste 0 933.6 -0.4 27
2019-08-12 13:00:00 20.9 16 Nordeste 31 Nordeste 0 933.9 0 32
2019-08-12 12:00:00 19.6 15 Nordeste 32 Nordeste 0 934 0.7 34
2019-08-12 11:00:00 17.6 15 Nordeste 30 Nordeste 0 934 0.9 42
2019-08-12 10:00:00 14.8 14 Nordeste 21 Nordeste 0 933.9 1 56
2019-08-12 09:00:00 11 8 Nordeste 12 Nordeste 0 933.3 0.8 76
2019-08-12 08:00:00 7.8 3 Nordeste 10 Nordeste 0 933.1 0.3 84
2019-08-12 07:00:00 7.4 5 Norte 7 Norte 0 932.9 0.1 83
2019-08-12 06:00:00 7.9 4 Nordeste 6 Nordeste 0 932.5 -0.5 81
2019-08-12 05:00:00 8.4 3 Noroeste 10 Norte 0 932.8 -0.3 80
2019-08-12 04:00:00 9.1 5 Nordeste 11 Norte 0 932.8 -0.3 76
2019-08-12 03:00:00 10 4 Noroeste 14 Noroeste 0 933 -0.3 73
2019-08-12 02:00:00 11.6 13 Noroeste 23 Noroeste 0 933.1 0.3 70
2019-08-12 01:00:00 12.7 18 Noroeste 24 Noroeste 0 933.1 1 67
2019-08-12 00:00:00 13.4 12 Noroeste 23 Noroeste 0 933.3 2 62
2019-08-11 23:00:00 14.6 10 Noroeste 24 Noroeste 0 932.8 2.2 53
2019-08-11 22:00:00 16.2 14 Noroeste 32 Noroeste 0 932.1 1.4 50
2019-08-11 21:00:00 18.3 21 Noroeste 33 Noroeste 0 931.3 0.8 42
2019-08-11 20:00:00 22 18 Oeste 35 Oeste 0 930.6 -0.3 30
2019-08-11 19:00:00 22.9 18 Noroeste 34 Noroeste 0 930.7 -0.3 27
2019-08-11 18:00:00 24.2 19 Noroeste 34 Oeste 0 930.5 -0.9 27
2019-08-11 17:00:00 23.9 17 Noroeste 39 Noroeste 0 930.9 -0.8 26
2019-08-11 16:00:00 24.4 18 Noroeste 36 Oeste 0 931 -0.8 26
2019-08-11 15:00:00 23.8 18 Oeste 32 Oeste 0 931.4 -0.1 28
2019-08-11 14:00:00 22.3 17 Oeste 30 Oeste 0 931.7 0.2 36
2019-08-11 13:00:00 21.5 20 Oeste 34 Oeste 0 931.8 0.6 42
2019-08-11 12:00:00 18.4 16 Oeste 28 Oeste 0 931.5 0.5 61
2019-08-11 11:00:00 15.2 15 Oeste 26 Noroeste 0 931.5 1.1 77
2019-08-11 10:00:00 14.2 16 Oeste 25 Oeste 0 931.2 1.2 86
2019-08-11 09:00:00 12.9 10 Sudoeste 19 Sudoeste 0 931 1.2 91
2019-08-11 08:00:00 11.4 6 Sudoeste 18 Oeste 0 930.4 0.7 90
2019-08-11 07:00:00 12.1 14 Oeste 18 Oeste 0.2 930 0 88
2019-08-11 06:00:00 13.4 9 Oeste 12 Sudoeste 0 929.8 -1 89
2019-08-11 05:00:00 14 4 Oeste 6 Oeste 0 929.7 -1.2 86
2019-08-11 04:00:00 14.5 4 Noroeste 26 Oeste 0.4 930 -0.7 86
2019-08-11 03:00:00 15.4 6 Sudoeste 16 Oeste 1 930.8 0.1 81
2019-08-11 02:00:00 16.7 9 Oeste 25 Oeste 0 930.9 0.1 63
2019-08-11 01:00:00 17.3 18 Noroeste 27 Oeste 0 930.7 0.3 60
2019-08-11 00:00:00 18 14 Oeste 23 Noroeste 0 930.7 0.7 56
2019-08-10 23:00:00 18.5 15 Oeste 22 Oeste 0 930.8 0.7 49
2019-08-10 22:00:00 20.4 14 Noroeste 29 Noroeste 0 930.4 0 41
2019-08-10 21:00:00 23.3 14 Noroeste 24 Noroeste 0 930 -0.6 29
2019-08-10 20:00:00 25.5 16 Oeste 26 Oeste 0 930.1 -0.8 26
2019-08-10 19:00:00 26.7 14 Oeste 30 Oeste 0 930.4 -1.1 23
2019-08-10 18:00:00 28.5 14 Oeste 32 Oeste 0 930.6 -1.4 21
2019-08-10 17:00:00 28.3 13 Noroeste 34 Oeste 0 930.9 -1.5 23
2019-08-10 16:00:00 28.4 13 Oeste 26 Oeste 0 931.5 -1.2 22
2019-08-10 15:00:00 26.5 9 Oeste 21 Sudoeste 0 932 -1 25
2019-08-10 14:00:00 24.8 7 Sudoeste 19 Oeste 0 932.4 -0.5 29
2019-08-10 13:00:00 23.9 9 Oeste 18 Oeste 0 932.7 -0.2 34
2019-08-10 12:00:00 21.2 5 Este 17 Norte 0 933 0.1 41
2019-08-10 11:00:00 19.1 3 Sudeste 19 Noroeste 0 932.9 0.3 50
2019-08-10 10:00:00 17.7 10 Noroeste 20 Noroeste 0 932.9 0.6 60
2019-08-10 09:00:00 14.9 3 Oeste 6 Sudoeste 0 932.9 0.8 82
2019-08-10 08:00:00 13.6 2 Sudoeste 5 Sudoeste 0 932.6 0.6 84
2019-08-10 07:00:00 13.4 3 Sudoeste 7 Sudoeste 0 932.3 0.3 84
2019-08-10 06:00:00 13.7 5 Sudoeste 9 Sur 0 932.1 0.3 82
2019-08-10 05:00:00 13.7 4 Sur 8 Sur 0 932 0.1 81
2019-08-10 04:00:00 13.2 4 Sudoeste 7 Sudeste 0 932 0.1 81
2019-08-10 03:00:00 12.5 4 Oeste 10 Oeste 0 931.8 0.1 82
2019-08-10 02:00:00 12.8 3 Oeste 9 Oeste 0 931.9 0.5 77
2019-08-10 01:00:00 13.7 9 Oeste 12 Oeste 0 931.9 1.3 72
2019-08-10 00:00:00 15.1 8 Noroeste 13 Noroeste 0 931.7 1.7 66
2019-08-09 23:00:00 16.6 12 Noroeste 21 Noroeste 0 931.4 2.1 61
2019-08-09 22:00:00 18.6 15 Oeste 26 Oeste 0 930.6 1.5 53
2019-08-09 21:00:00 21 22 Oeste 35 Oeste 0 930 0.9 41
2019-08-09 20:00:00 24.6 18 Oeste 36 Oeste 0 929.3 0.2 35
2019-08-09 19:00:00 26.4 24 Oeste 39 Oeste 0 929.1 -0.3 31
2019-08-09 18:00:00 27.4 22 Oeste 47 Oeste 0 929.1 -0.1 30
2019-08-09 17:00:00 27.2 27 Sudoeste 40 Sudoeste 0 929.1 -0.2 30
2019-08-09 16:00:00 25.9 26 Oeste 49 Oeste 0 929.4 0 34
2019-08-09 15:00:00 26.6 26 Oeste 45 Oeste 0 929.2 0.4 36
2019-08-09 14:00:00 24.3 25 Oeste 41 Oeste 0 929.3 0.8 42
2019-08-09 13:00:00 22.6 30 Oeste 42 Oeste 0 929.4 1.4 56
2019-08-09 12:00:00 20.9 24 Oeste 38 Oeste 0 928.8 1.4 75
2019-08-09 11:00:00 17.1 25 Oeste 37 Oeste 0.2 928.5 1.7 90
2019-08-09 10:00:00 16.5 22 Oeste 36 Oeste 0.6 928 2.2 92
2019-08-09 09:00:00 16.5 18 Oeste 41 Oeste 0.4 927.4 1.7 92
2019-08-09 08:00:00 17.5 30 Oeste 42 Sudoeste 0.4 926.8 0.8 90
2019-08-09 07:00:00 20 25 Sudoeste 42 Sudoeste 0 925.8 -0.5 81
2019-08-09 06:00:00 19.8 17 Sudoeste 30 Sudoeste 0 925.7 -0.6 80
2019-08-09 05:00:00 19.8 11 Sur 25 Sudoeste 0 926 -0.6 79
2019-08-09 04:00:00 19.4 15 Sudoeste 29 Sur 0 926.3 -0.3 77
2019-08-09 03:00:00 19.8 14 Sudoeste 27 Sudoeste 0 926.3 -0.6 73
2019-08-09 02:00:00 20 14 Sudoeste 26 Sudoeste 0 926.6 -0.3 71
2019-08-09 01:00:00 20.6 14 Sudoeste 22 Sudoeste 0 926.6 0.3 67
2019-08-09 00:00:00 21.2 17 Sudoeste 25 Sudoeste 0 926.9 1 63
2019-08-08 23:00:00 22.2 13 Sudoeste 27 Sudoeste 0 926.9 1.2 57
2019-08-08 22:00:00 23.4 19 Sudoeste 36 Sudoeste 0 926.3 0.4 52
2019-08-08 21:00:00 24.9 25 Sudoeste 45 Sudoeste 0 925.9 0.2 48
2019-08-08 20:00:00 27.2 29 Sudoeste 47 Sudoeste 0 925.7 -0.3 41
2019-08-08 19:00:00 27.2 29 Sudoeste 47 Sudoeste 0 925.9 -0.3 40
2019-08-08 18:00:00 29.7 31 Sudoeste 52 Sudoeste 0 925.7 -1 34
2019-08-08 17:00:00 28.8 29 Sudoeste 50 Sudoeste 0 926 -1 36
2019-08-08 16:00:00 29.2 28 Sudoeste 46 Sudoeste 0 926.2 -0.8 38
2019-08-08 15:00:00 27.7 29 Sudoeste 49 Sudoeste 0 926.7 -0.4 42
2019-08-08 14:00:00 28.4 28 Sudoeste 47 Sudoeste 0 927 -0.1 43
2019-08-08 13:00:00 26.4 23 Sudoeste 37 Sudoeste 0 927 -0.3 52
2019-08-08 12:00:00 24.5 19 Sudoeste 35 Sudoeste 0 927.1 -0.1 58
2019-08-08 11:00:00 23 18 Sudoeste 33 Sudoeste 0 927.1 0.2 66
2019-08-08 10:00:00 21.5 15 Sudoeste 30 Sudoeste 0 927.3 0.6 71
2019-08-08 09:00:00 19.9 16 Sudoeste 24 Sudoeste 0 927.2 0.4 74
2019-08-08 08:00:00 19.2 12 Sudoeste 25 Sudoeste 0 926.9 0 75
2019-08-08 07:00:00 19 13 Sudoeste 22 Sur 0 926.7 -0.7 72
2019-08-08 06:00:00 18.9 16 Sudoeste 27 Sudoeste 0 926.8 -0.7 74
2019-08-08 05:00:00 19.5 8 Sur 16 Sudoeste 0 926.9 -0.9 65
2019-08-08 04:00:00 19.6 10 Sudoeste 16 Sudoeste 0 927.4 -0.3 62
2019-08-08 03:00:00 19.7 8 Sur 15 Sudoeste 0 927.5 -0.1 62
2019-08-08 02:00:00 19.7 11 Oeste 24 Oeste 0 927.8 0.3 63
2019-08-08 01:00:00 20.1 10 Sudoeste 15 Sudoeste 0 927.7 0.6 59
2019-08-08 00:00:00 20.7 9 Sudoeste 22 Sudoeste 0 927.6 0.9 54
2019-08-07 23:00:00 21.5 18 Oeste 26 Oeste 0 927.5 1 50
2019-08-07 22:00:00 22 13 Oeste 26 Oeste 0 927.1 0.4 51
2019-08-07 21:00:00 24 17 Oeste 25 Oeste 0 926.7 -0.3 47
2019-08-07 20:00:00 25.1 16 Oeste 25 Oeste 0 926.5 -0.7 42
2019-08-07 19:00:00 26.3 14 Sudoeste 26 Oeste 0 926.7 -0.7 38
2019-08-07 18:00:00 25.9 17 Oeste 29 Oeste 0 927 -0.5 35
2019-08-07 17:00:00 25.3 17 Sudoeste 34 Oeste 0 927.2 -0.3 35
2019-08-07 16:00:00 25.7 17 Sudoeste 29 Sudoeste 0 927.4 -0.3 34
2019-08-07 15:00:00 26.1 15 Sudoeste 26 Oeste 0 927.5 -0.2 35
2019-08-07 14:00:00 24.2 14 Sudoeste 21 Oeste 0 927.5 0.1 43
2019-08-07 13:00:00 23.2 11 Sudoeste 22 Sudoeste 0 927.7 0.7 51
2019-08-07 12:00:00 21.6 10 Sudoeste 18 Sudoeste 0 927.7 1.2 63
2019-08-07 11:00:00 20.3 9 Sudoeste 15 Sudoeste 0 927.4 1.2 70
2019-08-07 10:00:00 18.9 9 Sudoeste 17 Sudoeste 0 927 1.1 76
2019-08-07 09:00:00 16.7 10 Sudoeste 14 Sudoeste 0 926.5 0.9 87
2019-08-07 08:00:00 16 4 Sudoeste 11 Sudoeste 0 926.2 0.6 90
2019-08-07 07:00:00 15.1 8 Sudoeste 13 Oeste 0 925.9 0.3 88
2019-08-07 06:00:00 16 8 Oeste 12 Oeste 0 925.6 -0.2 85
2019-08-07 05:00:00 16.9 8 Oeste 11 Sudoeste 0 925.6 -0.6 80
2019-08-07 04:00:00 18.1 6 Oeste 14 Oeste 0 925.6 -0.6 76
2019-08-07 03:00:00 19 8 Sudoeste 11 Oeste 0 925.8 -0.8 68
2019-08-07 02:00:00 19.6 6 Sudoeste 15 Oeste 0 926.2 -0.5 64
2019-08-07 01:00:00 20.1 8 Sudoeste 13 Oeste 0 926.2 0 63
2019-08-07 00:00:00 20.7 8 Oeste 17 Oeste 0 926.6 0.9 60
2019-08-06 23:00:00 21.7 10 Oeste 19 Oeste 0 926.7 1.5 57
2019-08-06 22:00:00 22.6 17 Oeste 27 Oeste 0 926.2 1.1 53
2019-08-06 21:00:00 24 18 Oeste 32 Noroeste 0 925.7 0.6 48
2019-08-06 20:00:00 26.6 21 Oeste 35 Noroeste 0 925.2 -0.3 41
2019-08-06 19:00:00 29.2 23 Noroeste 32 Oeste 0 925.1 -0.9 29
2019-08-06 18:00:00 30.7 18 Oeste 32 Oeste 0 925.1 -1.1 22
2019-08-06 17:00:00 32.1 16 Noroeste 30 Oeste 0 925.5 -1.2 21
2019-08-06 16:00:00 33.9 16 Oeste 30 Oeste 0 926 -1.1 19
2019-08-06 15:00:00 32.9 13 Oeste 25 Oeste 0 926.2 -1.5 21
2019-08-06 14:00:00 32.2 12 Sudoeste 23 Oeste 0 926.7 -0.9 24
2019-08-06 13:00:00 29.6 5 Oeste 20 Oeste 0 927.1 -0.6 29
2019-08-06 12:00:00 27.5 10 Oeste 17 Noroeste 0 927.7 0.3 40
2019-08-06 11:00:00 24.4 6 Oeste 13 Oeste 0 927.6 0.1 51
2019-08-06 10:00:00 21.3 5 Oeste 13 Oeste 0 927.7 0.3 63
2019-08-06 09:00:00 17.2 5 Sudoeste 8 Sur 0 927.4 -0.4 78
2019-08-06 08:00:00 15.1 4 Sudoeste 12 Sur 0 927.5 -0.5 83
2019-08-06 07:00:00 15.1 5 Sur 14 Sur 0 927.4 -0.4 82
2019-08-06 06:00:00 15 5 Sudoeste 8 Sur 0 927.8 0 77
2019-08-06 05:00:00 15.8 4 Sudoeste 8 Sudoeste 0 928 -0.1 75
2019-08-06 04:00:00 16.5 6 Sudoeste 15 Sudoeste 0 927.8 -0.3 72
2019-08-06 03:00:00 17.4 11 Sudoeste 15 Oeste 0 927.8 -0.2 67
2019-08-06 02:00:00 18.3 9 Oeste 14 Oeste 0 928.1 0.5 62
2019-08-06 01:00:00 19.5 12 Oeste 17 Oeste 0 928.1 1.1 56
2019-08-06 00:00:00 21.1 12 Oeste 21 Oeste 0 928 1.4 48
2019-08-05 23:00:00 23.1 15 Oeste 22 Oeste 0 927.6 1.1 41
2019-08-05 22:00:00 25.2 13 Oeste 19 Oeste 0 927 0.4 33
2019-08-05 21:00:00 28.9 14 Oeste 24 Oeste 0 926.6 -0.3 24
2019-08-05 20:00:00 32.2 11 Oeste 28 Oeste 0 926.5 -0.4 18
2019-08-05 19:00:00 33.6 18 Oeste 30 Oeste 0 926.6 -0.7 16
2019-08-05 18:00:00 34.2 17 Oeste 28 Oeste 0 926.9 -0.8 15
2019-08-05 17:00:00 34.4 13 Oeste 30 Sudoeste 0 926.9 -1 16
2019-08-05 16:00:00 33.8 13 Oeste 31 Sudoeste 0 927.3 -1.1 20
2019-08-05 15:00:00 31.2 9 Sur 24 Sudoeste 0 927.7 -1.2 23
2019-08-05 14:00:00 31.3 10 Oeste 20 Oeste 0 927.9 -1.2 28
2019-08-05 13:00:00 28.3 8 Norte 18 Noroeste 0 928.4 -0.9 36
2019-08-05 12:00:00 26.2 5 Noroeste 14 Norte 0 928.9 -0.4 43
2019-08-05 11:00:00 23.2 5 Norte 13 Noroeste 0 929.1 0 54
2019-08-05 10:00:00 20.5 4 Norte 10 Noroeste 0 929.3 0.3 65
2019-08-05 09:00:00 17.5 3 Sudoeste 5 Oeste 0 929.3 0.3 77
2019-08-05 08:00:00 13.9 3 Sudoeste 5 Sudoeste 0 929.1 0.1 89
2019-08-05 07:00:00 13.6 3 Sudoeste 8 Sudoeste 0 929 -0.3 88
2019-08-05 06:00:00 14.2 4 Sudoeste 10 Sudoeste 0 929 -0.4 87
2019-08-05 05:00:00 14.7 6 Sudoeste 10 Sudoeste 0 929 -0.3 85
2019-08-05 04:00:00 15.7 8 Sudoeste 12 Sudoeste 0 929.3 0.1 84
2019-08-05 03:00:00 16.6 8 Sudoeste 13 Sudoeste 0 929.4 0.3 79
2019-08-05 02:00:00 17.6 7 Sudoeste 16 Oeste 0 929.3 0.3 70
2019-08-05 01:00:00 18.9 7 Oeste 17 Oeste 0 929.2 1 63
2019-08-05 00:00:00 20.3 12 Oeste 15 Oeste 0 929.1 1.6 58
2019-08-04 23:00:00 22.6 10 Oeste 26 Oeste 0 929 1.9 47
2019-08-04 22:00:00 25 17 Oeste 30 Oeste 0 928.2 1.3 40
2019-08-04 21:00:00 28.7 15 Oeste 27 Oeste 0 927.5 0.5 29
2019-08-04 20:00:00 32.2 17 Oeste 31 Oeste 0 927.1 -0.2 21
2019-08-04 19:00:00 33.5 12 Noroeste 30 Oeste 0 926.9 -0.8 18
2019-08-04 18:00:00 33.5 16 Noroeste 32 Oeste 0 927 -1 18
2019-08-04 17:00:00 34.5 18 Oeste 34 Oeste 0 927.3 -0.8 18
2019-08-04 16:00:00 33.6 14 Oeste 31 Oeste 0 927.7 -1 21
2019-08-04 15:00:00 32.7 16 Sudoeste 31 Oeste 0 928 -0.8 25
2019-08-04 14:00:00 30 10 Sudoeste 23 Sudoeste 0 928.1 -0.8 30
2019-08-04 13:00:00 29.2 11 Sudoeste 19 Sudoeste 0 928.7 -0.3 34
2019-08-04 12:00:00 26.7 9 Sudoeste 17 Oeste 0 928.8 0 42
2019-08-04 11:00:00 24.5 7 Oeste 15 Oeste 0 928.9 0.4 52
2019-08-04 10:00:00 21.4 9 Oeste 18 Oeste 0 929 0.7 61
2019-08-04 09:00:00 18.5 12 Oeste 16 Oeste 0 928.8 0.7 74
2019-08-04 08:00:00 15.3 5 Sudoeste 8 Sudeste 0 928.5 0 83
2019-08-04 07:00:00 14.6 8 Sudoeste 12 Sudoeste 0 928.3 -0.2 86
2019-08-04 06:00:00 14.9 7 Sudoeste 10 Sudoeste 0 928.1 -0.4 82
2019-08-04 05:00:00 16.1 4 Sudoeste 8 Sudoeste 0 928.5 0 74
2019-08-04 04:00:00 16.7 8 Sudoeste 12 Sudoeste 0 928.5 0.3 71
2019-08-04 03:00:00 17.6 9 Sudoeste 14 Sudoeste 0 928.5 0.6 65
2019-08-04 02:00:00 18.6 10 Oeste 16 Oeste 0 928.5 0.8 63
2019-08-04 01:00:00 19.6 10 Oeste 17 Oeste 0 928.2 1.2 59
2019-08-04 00:00:00 20.7 11 Oeste 14 Oeste 0 927.9 1.4 51
2019-08-03 23:00:00 22.8 9 Oeste 18 Oeste 0 927.7 1.6 43
2019-08-03 22:00:00 25.3 11 Oeste 28 Oeste 0 927 0.7 34
2019-08-03 21:00:00 28.7 19 Oeste 38 Oeste 0 926.5 -0.1 26
2019-08-03 20:00:00 33.1 14 Oeste 27 Oeste 0 926.1 -0.9 19
2019-08-03 19:00:00 34.7 14 Oeste 29 Noroeste 0 926.3 -0.9 14
2019-08-03 18:00:00 34.6 10 Sudoeste 24 Oeste 0 926.6 -1 17
2019-08-03 17:00:00 35.3 13 Oeste 32 Oeste 0 927 -0.9 15
2019-08-03 16:00:00 35.1 15 Oeste 26 Oeste 0 927.2 -0.9 19
2019-08-03 15:00:00 33.8 11 Oeste 23 Oeste 0 927.6 -0.5 22
2019-08-03 14:00:00 32.6 9 Oeste 26 Sudoeste 0 927.9 -0.1 25
2019-08-03 13:00:00 30.9 11 Oeste 18 Oeste 0 928.1 0 28
2019-08-03 12:00:00 28.6 8 Oeste 15 Noroeste 0 928.1 0.2 32
2019-08-03 11:00:00 25.7 4 Norte 9 Oeste 0 928 0.1 41
2019-08-03 10:00:00 22.8 6 Nordeste 18 Nordeste 0 928.1 0.4 48
2019-08-03 09:00:00 20 9 Nordeste 18 Nordeste 0 927.9 0.4 57
2019-08-03 08:00:00 15.6 3 Norte 9 Noroeste 0 927.9 0.3 79
2019-08-03 07:00:00 14.7 4 Oeste 6 Oeste 0 927.7 -0.2 75
2019-08-03 06:00:00 15.2 2 Sur 3 Sur 0 927.5 -0.4 68
2019-08-03 05:00:00 16 3 Sudoeste 5 Sudoeste 0 927.6 -0.7 61
2019-08-03 04:00:00 17.3 3 Sur 8 Oeste 0 927.9 -0.3 55
2019-08-03 03:00:00 18 5 Oeste 11 Oeste 0 927.9 -0.3 51
2019-08-03 02:00:00 19 8 Noroeste 11 Noroeste 0 928.3 0.4 48
2019-08-03 01:00:00 20.3 9 Noroeste 14 Noroeste 0 928.2 0.6 43
2019-08-03 00:00:00 22 9 Noroeste 23 Noroeste 0 928.2 0.7 39
2019-08-02 23:00:00 23.3 9 Noroeste 13 Noroeste 0 927.9 0.5 30
2019-08-02 22:00:00 25.5 10 Noroeste 12 Noroeste 0 927.6 0.2 28
2019-08-02 21:00:00 29.7 10 Noroeste 20 Oeste 0 927.5 -0.3 21
2019-08-02 20:00:00 32.3 10 Noroeste 25 Oeste 0 927.4 -0.6 17
2019-08-02 19:00:00 33.6 13 Oeste 24 Oeste 0 927.4 -1 18
2019-08-02 18:00:00 34.2 8 Sudoeste 22 Oeste 0 927.8 -1 16
2019-08-02 17:00:00 34.5 11 Oeste 29 Oeste 0 928 -1.2 18
2019-08-02 16:00:00 33.8 9 Sudoeste 21 Oeste 0 928.4 -1 20
2019-08-02 15:00:00 31.8 9 Este 18 Este 0 928.8 -0.7 21
2019-08-02 14:00:00 29.6 6 Norte 20 Este 0 929.2 -0.4 27
2019-08-02 13:00:00 28.3 8 Nordeste 17 Nordeste 0 929.4 -0.1 33
2019-08-02 12:00:00 25.7 8 Nordeste 19 Nordeste 0 929.5 0.5 43
2019-08-02 11:00:00 23 9 Nordeste 15 Nordeste 0 929.6 0.7 53
2019-08-02 10:00:00 20.2 9 Nordeste 17 Nordeste 0 929.5 0.8 62
2019-08-02 09:00:00 16.2 9 Nordeste 14 Nordeste 0 929 0.5 74
2019-08-02 08:00:00 13.8 6 Nordeste 11 Nordeste 0 928.9 0.2 84
2019-08-02 07:00:00 12.7 6 Nordeste 10 Nordeste 0 928.7 0 80
2019-08-02 06:00:00 13.2 4 Nordeste 7 Nordeste 0 928.5 -0.4 73
2019-08-02 05:00:00 13.8 3 Norte 9 Nordeste 0 928.7 -0.3 70
2019-08-02 04:00:00 14.5 4 Sur 8 Sudoeste 0 928.7 0 68
2019-08-02 03:00:00 15.6 6 Sudoeste 9 Sur 0 928.9 0.4 63
2019-08-02 02:00:00 16.7 9 Sudoeste 11 Sudoeste 0 929 1 55
2019-08-02 01:00:00 17.5 8 Oeste 14 Oeste 0 928.7 1.7 49
2019-08-02 00:00:00 19.4 9 Oeste 19 Oeste 0 928.5 2.1 43
2019-08-01 23:00:00 21.4 12 Oeste 18 Oeste 0 928 1.9 37
2019-08-01 22:00:00 24.1 15 Oeste 24 Noroeste 0 927 1 30
2019-08-01 21:00:00 27.9 14 Noroeste 25 Oeste 0 926.4 0.3 24
2019-08-01 20:00:00 31.2 12 Oeste 25 Oeste 0 926.1 -0.2 15
2019-08-01 19:00:00 32.2 18 Oeste 30 Oeste 0 926 -0.6 13
2019-08-01 18:00:00 32.8 14 Oeste 27 Oeste 0 926.1 -0.7 15
2019-08-01 17:00:00 33.1 16 Oeste 30 Oeste 0 926.3 -0.7 15
2019-08-01 16:00:00 32.6 16 Sudoeste 29 Oeste 0 926.6 -0.5 16
2019-08-01 15:00:00 31.8 16 Oeste 26 Sudoeste 0 926.8 -0.3 18
2019-08-01 14:00:00 29.8 8 Sudoeste 24 Oeste 0 927 0 22
2019-08-01 13:00:00 28.1 9 Noroeste 18 Noroeste 0 927.1 0.2 27
2019-08-01 12:00:00 26.3 6 Noroeste 14 Norte 0 927.1 0.5 33
2019-08-01 11:00:00 23.8 3 Nordeste 17 Este 0 927 0.7 42
2019-08-01 10:00:00 20.6 9 Este 20 Este 0 926.9 0.8 52
2019-08-01 09:00:00 17.6 6 Este 12 Este 0 926.6 1.1 63
2019-08-01 08:00:00 13.2 0 Calma 5 Sur 0 926.3 0.7 74
2019-08-01 07:00:00 13.2 4 Sudoeste 10 Nordeste 0 926.1 0.2 72
2019-08-01 06:00:00 14.1 5 Nordeste 11 Nordeste 0 925.5 -0.6 69
2019-08-01 05:00:00 15.5 9 Norte 18 Norte 0 925.6 -0.9 60
2019-08-01 04:00:00 15.6 10 Noroeste 14 Norte 0 925.9 -0.6 54
2019-08-01 03:00:00 16.8 7 Norte 14 Norte 0 926.1 -0.4 48
2019-08-01 02:00:00 17.6 9 Norte 12 Norte 0 926.5 -0.1 44
2019-08-01 01:00:00 18.9 7 Nordeste 9 Nordeste 0 926.5 0.4 40
2019-08-01 00:00:00 20.2 7 Nordeste 12 Nordeste 0 926.5 0.5 37
2019-07-31 23:00:00 20.6 7 Nordeste 10 Nordeste 0 926.6 0.7 35
2019-07-31 22:00:00 22.5 6 Norte 17 Norte 0 926.1 0.2 31
2019-07-31 21:00:00 25 13 Norte 25 Norte 0 926 -0.1 27
2019-07-31 20:00:00 25.8 15 Norte 26 Norte 0 925.9 -0.6 26
2019-07-31 19:00:00 26.6 14 Norte 31 Norte 0 925.9 -1.1 26
2019-07-31 18:00:00 27.7 13 Norte 27 Norte 0 926.1 -1.4 24
2019-07-31 17:00:00 28.5 8 Nordeste 17 Nordeste 0 926.5 -1.5 23
2019-07-31 16:00:00 29 8 Noroeste 21 Este 0 927 -1.5 23
2019-07-31 15:00:00 28.4 13 Nordeste 30 Este 0 927.5 -1.4 27
2019-07-31 14:00:00 25.7 17 Nordeste 29 Nordeste 0 928 -1 31
2019-07-31 13:00:00 24.9 17 Nordeste 36 Nordeste 0 928.5 -0.6 31
2019-07-31 12:00:00 22.6 19 Nordeste 31 Nordeste 0 928.9 0 38
2019-07-31 11:00:00 19.2 20 Nordeste 31 Nordeste 0 929 0.1 48
2019-07-31 10:00:00 16.5 20 Nordeste 35 Nordeste 0 929.1 0.1 58
2019-07-31 09:00:00 13.9 22 Nordeste 34 Nordeste 0 928.9 -0.1 68
2019-07-31 08:00:00 11.5 19 Nordeste 27 Nordeste 0 928.9 -0.2 79
2019-07-31 07:00:00 11.2 18 Nordeste 30 Nordeste 0 929 -0.3 79
2019-07-31 06:00:00 12 19 Nordeste 30 Nordeste 0 929 -0.6 73
2019-07-31 05:00:00 13.2 20 Nordeste 30 Nordeste 0 929.1 -0.7 66
2019-07-31 04:00:00 13.8 16 Nordeste 23 Nordeste 0 929.3 -0.5 56
2019-07-31 03:00:00 14.6 14 Nordeste 20 Nordeste 0 929.6 -0.1 45
2019-07-31 02:00:00 14.7 9 Norte 14 Norte 0 929.8 0 51
2019-07-31 01:00:00 16.1 9 Norte 18 Norte 0 929.8 0.6 47
2019-07-31 00:00:00 17.2 12 Norte 18 Norte 0 929.7 0.8 43
2019-07-30 23:00:00 18.4 11 Norte 19 Noroeste 0 929.8 0.9 34
2019-07-30 22:00:00 20.6 9 Norte 15 Norte 0 929.2 0.2 25
2019-07-30 21:00:00 23.8 8 Nordeste 21 Nordeste 0 928.9 -0.5 18
2019-07-30 20:00:00 26.2 9 Nordeste 34 Nordeste 0 928.9 -0.9 15
2019-07-30 19:00:00 27.3 12 Nordeste 24 Este 0 929 -1.3 14
2019-07-30 18:00:00 26.9 8 Nordeste 25 Norte 0 929.4 -1.3 14
2019-07-30 17:00:00 26.2 12 Norte 27 Norte 0 929.8 -1.5 16
2019-07-30 16:00:00 26.2 13 Nordeste 29 Norte 0 930.3 -1.3 18
2019-07-30 15:00:00 24.7 14 Norte 29 Nordeste 0 930.7 -1.2 22
2019-07-30 14:00:00 23.4 15 Nordeste 28 Nordeste 0 931.3 -0.5 25
2019-07-30 13:00:00 22 14 Nordeste 26 Nordeste 0 931.6 -0.4 27
2019-07-30 12:00:00 19.7 13 Nordeste 28 Nordeste 0 931.9 0.3 34
2019-07-30 11:00:00 17.7 15 Nordeste 26 Nordeste 0 931.8 0.4 42
2019-07-30 10:00:00 15 9 Nordeste 18 Nordeste 0 932 0.9 56
2019-07-30 09:00:00 12.6 8 Norte 15 Norte 0 931.6 0.7 67
2019-07-30 08:00:00 8.6 3 Norte 5 Norte 0 931.4 0.6 84
2019-07-30 07:00:00 7.8 2 Norte 6 Este 0 931.1 0.3 83
2019-07-30 06:00:00 8.9 5 Norte 14 Noroeste 0 930.9 0.1 82
2019-07-30 05:00:00 9.6 11 Noroeste 18 Noroeste 0 930.8 0.2 82
2019-07-30 04:00:00 10.1 15 Noroeste 23 Noroeste 0 930.8 0.1 78
2019-07-30 03:00:00 11.3 15 Noroeste 24 Noroeste 0 930.8 0.6 71
2019-07-30 02:00:00 12.2 15 Noroeste 24 Noroeste 0 930.6 1 66
2019-07-30 01:00:00 13.2 16 Noroeste 23 Noroeste 0 930.7 1.9 59
2019-07-30 00:00:00 14.2 13 Noroeste 22 Noroeste 0 930.2 2 54
2019-07-29 23:00:00 16 15 Noroeste 22 Noroeste 0 929.6 1.9 50
2019-07-29 22:00:00 17.8 15 Oeste 30 Oeste 0 928.8 1.4 43
2019-07-29 21:00:00 20.7 21 Noroeste 32 Noroeste 0 928.2 0.9 33
2019-07-29 20:00:00 23.8 22 Oeste 36 Oeste 0 927.7 0.5 25
2019-07-29 19:00:00 25.3 22 Noroeste 45 Oeste 0 927.4 0.1 21
2019-07-29 18:00:00 26.9 24 Oeste 42 Oeste 0 927.3 0 23
2019-07-29 17:00:00 27.6 21 Oeste 35 Oeste 0 927.2 -0.1 25
2019-07-29 16:00:00 27.3 20 Oeste 36 Oeste 0 927.3 0.1 25
2019-07-29 15:00:00 25.9 19 Noroeste 32 Noroeste 0 927.3 0.2 27
2019-07-29 14:00:00 25.6 24 Oeste 36 Oeste 0 927.3 0.2 28
2019-07-29 13:00:00 23.9 17 Oeste 30 Oeste 0 927.2 0.5 36
2019-07-29 12:00:00 22 17 Oeste 31 Oeste 0 927.1 0.8 47
2019-07-29 11:00:00 20.4 15 Oeste 26 Oeste 0 927.1 1.3 54
2019-07-29 10:00:00 17.5 16 Oeste 24 Sudoeste 0 926.7 1.3 64
2019-07-29 09:00:00 14.1 11 Sudoeste 15 Sudoeste 0 926.3 0.9 66
2019-07-29 08:00:00 12.3 4 Sur 11 Sur 0 925.8 0.4 74
2019-07-29 07:00:00 11.2 7 Sur 13 Sur 0 925.4 0.1 82
2019-07-29 06:00:00 11.4 10 Sudoeste 14 Sur 0 925.4 0 82
2019-07-29 05:00:00 12.2 9 Sudoeste 14 Sudoeste 0 925.4 0 79
2019-07-29 04:00:00 13 9 Sudoeste 15 Sudoeste 0 925.3 0.2 76
2019-07-29 03:00:00 14.4 9 Sudoeste 18 Sudoeste 0 925.4 0.6 72
2019-07-29 02:00:00 16 12 Oeste 23 Oeste 0 925.4 0.8 68
2019-07-29 01:00:00 17.4 14 Sudoeste 22 Oeste 0 925.1 1.2 60
2019-07-29 00:00:00 19.3 11 Oeste 22 Oeste 0 924.8 1.3 50
2019-07-28 23:00:00 20.9 14 Oeste 18 Noroeste 0 924.6 1.1 43
2019-07-28 22:00:00 23.2 8 Noroeste 11 Noroeste 0 923.9 0.4 28
2019-07-28 21:00:00 26.6 9 Oeste 17 Noroeste 0 923.5 -0.2 23
2019-07-28 20:00:00 29.2 11 Oeste 24 Oeste 0 923.5 -0.5 18
2019-07-28 19:00:00 30.2 10 Oeste 27 Oeste 0 923.5 -0.9 12
2019-07-28 18:00:00 30.4 14 Oeste 30 Noroeste 0 923.7 -1.1 13
2019-07-28 17:00:00 30.7 17 Oeste 28 Oeste 0 924 -1.2 16
2019-07-28 16:00:00 29 14 Sudoeste 28 Sudoeste 0 924.4 -1.4 20
2019-07-28 15:00:00 28.5 10 Sudoeste 26 Oeste 0 924.8 -1.1 21
2019-07-28 14:00:00 25.8 7 Sur 16 Sur 0 925.2 -0.8 26
2019-07-28 13:00:00 25.7 8 Noroeste 16 Noroeste 0 925.8 -0.2 30
2019-07-28 12:00:00 23 9 Sudeste 19 Este 0 925.9 0 35
2019-07-28 11:00:00 21.7 11 Este 23 Este 0 926 0.2 40
2019-07-28 10:00:00 18.5 16 Este 26 Nordeste 0 926 0.4 51
2019-07-28 09:00:00 15.6 14 Este 23 Este 0 925.9 0.5 64
2019-07-28 08:00:00 12.5 14 Nordeste 25 Este 0 925.8 0 76
2019-07-28 07:00:00 11.9 14 Este 27 Este 0 925.6 -0.4 77
2019-07-28 06:00:00 12.5 17 Este 25 Este 0 925.4 -0.7 75
2019-07-28 05:00:00 13.1 16 Este 23 Este 0 925.8 0 75
2019-07-28 04:00:00 14 12 Este 23 Este 0 926 0.2 74
2019-07-28 03:00:00 15.2 11 Este 16 Este 0 926.1 0.5 72
2019-07-28 02:00:00 15 7 Norte 14 Norte 0 925.8 0.7 72
2019-07-28 01:00:00 15.8 11 Norte 14 Norte 0 925.8 1.4 67
2019-07-28 00:00:00 16.2 9 Noroeste 13 Noroeste 0 925.6 1.8 66
2019-07-27 23:00:00 18.2 10 Noroeste 19 Noroeste 0 925.1 1.8 59
2019-07-26 12:00:00 22.3 17 Oeste 30 Oeste 0 928.1 0.2 41
2019-07-26 11:00:00 20 13 Oeste 23 Oeste 0 928.3 0.5 50
2019-07-26 10:00:00 17.5 17 Oeste 27 Oeste 0 928.2 0.4 61
2019-07-26 09:00:00 14.8 12 Oeste 19 Oeste 0 927.9 0 74
2019-07-26 08:00:00 11.2 4 Sudoeste 10 Oeste 0 927.8 -0.3 86
2019-07-26 07:00:00 10.6 6 Oeste 12 Oeste 0 927.8 -0.4 84
2019-07-26 06:00:00 12.3 7 Oeste 17 Noroeste 0 927.9 -0.4 81
2019-07-26 05:00:00 14.3 9 Oeste 23 Oeste 0 928.1 -0.3 74
2019-07-26 04:00:00 16.1 15 Noroeste 25 Oeste 0 928.2 -0.1 69
2019-07-26 03:00:00 16.9 15 Oeste 25 Noroeste 0 928.3 0.3 71
2019-07-26 02:00:00 17.6 16 Noroeste 27 Oeste 0 928.4 0.5 73
2019-07-26 01:00:00 18.6 18 Oeste 27 Oeste 0 928.3 0.9 73
2019-07-26 00:00:00 19.1 17 Oeste 27 Oeste 0 928 0.9 73
2019-07-25 23:00:00 19.1 14 Oeste 30 Noroeste 0 927.9 1.3 73
2019-07-25 22:00:00 20.8 20 Oeste 30 Oeste 0 927.4 1.4 68
2019-07-25 21:00:00 22.8 18 Oeste 33 Oeste 0 927.1 1.2 61
2019-07-25 20:00:00 25.6 20 Oeste 39 Oeste 0 926.6 0.4 42
2019-07-25 19:00:00 28.4 25 Oeste 40 Oeste 0 926 -0.6 31
2019-07-25 18:00:00 30.5 23 Sudoeste 36 Sudoeste 0 925.9 -0.9 28
2019-07-25 17:00:00 32.6 18 Sudoeste 39 Sudoeste 0 926.2 -0.8 25
2019-07-25 16:00:00 33 21 Oeste 42 Oeste 0 926.6 -0.7 22
2019-07-25 15:00:00 32.8 26 Oeste 45 Oeste 0 926.8 -0.5 27
2019-07-25 14:00:00 31 19 Sudoeste 31 Sudoeste 0 927 -0.2 24
2019-07-25 13:00:00 29.6 13 Sudoeste 27 Sudoeste 0 927.3 0 30
2019-07-25 12:00:00 27.2 12 Sudoeste 26 Sudoeste 0 927.3 0.1 33
2019-07-25 11:00:00 24.9 12 Sudoeste 19 Sudoeste 0 927.2 0.2 41
2019-07-25 10:00:00 24.2 11 Sudoeste 16 Sudoeste 0 927.3 0.8 43
2019-07-25 09:00:00 20.6 4 Sudoeste 7 Sudoeste 0 927.2 0.7 53
2019-07-25 08:00:00 16.4 3 Sudoeste 4 Sudoeste 0 927 0.1 64
2019-07-25 07:00:00 15.4 2 Sur 8 Sur 0 926.5 -0.5 67
2019-07-25 06:00:00 16.3 4 Sur 9 Sur 0 926.5 -0.8 62
2019-07-25 05:00:00 16.8 4 Sur 9 Sur 0 926.9 -0.6 60
2019-07-25 04:00:00 18 4 Sudoeste 10 Sur 0 927 -0.5 53
2019-07-25 03:00:00 18.9 7 Sur 11 Sur 0 927.3 -0.1 49
2019-07-25 02:00:00 19.7 5 Sur 9 Sudoeste 0 927.5 0.4 46
2019-07-25 01:00:00 20.2 6 Sudoeste 10 Sudoeste 0 927.5 1 43
2019-07-25 00:00:00 22.2 6 Oeste 25 Oeste 0 927.4 1.3 35
2019-07-24 23:00:00 24.2 17 Oeste 26 Oeste 0 927.1 1.3 32
2019-07-24 22:00:00 26.5 16 Oeste 33 Oeste 0 926.5 0.6 29
2019-07-24 21:00:00 30 24 Oeste 35 Oeste 0 926.1 -0.4 26
2019-07-24 20:00:00 32.9 16 Sudoeste 36 Sudoeste 0 925.8 -1 20
2019-07-24 19:00:00 34.1 19 Sudoeste 36 Sudoeste 0 925.9 -1.2 18
2019-07-24 18:00:00 34.5 18 Sudoeste 35 Sudoeste 0 926.5 -1 16
2019-07-24 17:00:00 34.8 17 Sudoeste 40 Sudoeste 0 926.8 -1.1 18
2019-07-24 16:00:00 34.3 23 Sudoeste 40 Sudoeste 0 927.1 -1.1 16
2019-07-24 15:00:00 33.7 17 Sur 41 Sudoeste 0 927.5 -1 18
2019-07-24 14:00:00 33 24 Sudoeste 42 Sudoeste 0 927.9 -0.7 20
2019-07-24 13:00:00 31.9 18 Sudoeste 31 Sudoeste 0 928.2 -0.4 25
2019-07-24 12:00:00 30 13 Sudoeste 24 Sudoeste 0 928.5 0 34
2019-07-24 11:00:00 27.3 8 Sur 14 Sur 0 928.6 0.3 38
2019-07-24 10:00:00 25.2 5 Nordeste 9 Este 0 928.6 0.6 50
2019-07-24 09:00:00 21.9 5 Este 10 Este 0 928.5 0.2 66
2019-07-24 08:00:00 18.2 4 Nordeste 7 Este 0 928.3 -0.1 80
2019-07-24 07:00:00 17.9 2 Norte 4 Nordeste 0 928 -0.7 79
2019-07-24 06:00:00 18.8 4 Este 9 Sudeste 0 928.3 -1.1 78
2019-07-24 05:00:00 18.9 5 Sudoeste 7 Sudoeste 0 928.4 -1.3 75
2019-07-24 04:00:00 20 5 Sudoeste 7 Sudoeste 0 928.7 -1.1 72
2019-07-24 03:00:00 21 3 Sur 11 Sudeste 0 929.4 -0.4 66
2019-07-24 02:00:00 21.5 5 Sudeste 8 Sudeste 0 929.7 0.3 64
2019-07-24 01:00:00 21.4 2 Sudoeste 6 Noroeste 0 929.8 1.1 64
2019-07-24 00:00:00 21.9 5 Oeste 8 Noroeste 0 929.8 1.7 61
2019-07-23 23:00:00 23.1 8 Oeste 12 Noroeste 0 929.4 1.9 57
2019-07-23 22:00:00 24.7 8 Oeste 16 Noroeste 0 928.7 1.3 51
2019-07-23 21:00:00 27 11 Noroeste 26 Noroeste 0 928.1 0.4 44
2019-07-23 20:00:00 28.8 18 Noroeste 37 Oeste 0 927.5 -0.5 35
2019-07-23 19:00:00 31.6 15 Sudoeste 31 Sudoeste 0 927.4 -1 26
2019-07-23 18:00:00 34 18 Sudoeste 34 Sudoeste 0 927.7 -1 24
2019-07-23 17:00:00 34.5 18 Sudoeste 35 Sudoeste 0 928 -0.8 22
2019-07-23 16:00:00 34.4 17 Sudoeste 32 Sudoeste 0 928.4 -0.8 23
2019-07-23 15:00:00 33.7 18 Sudoeste 36 Sudoeste 0 928.7 -0.8 24
2019-07-23 14:00:00 33.5 14 Sudoeste 31 Sudoeste 0 928.8 -0.7 28
2019-07-23 13:00:00 31.1 7 Sur 27 Sudeste 0 929.2 -0.3 28
2019-07-23 12:00:00 28.9 11 Sudeste 23 Sudeste 0 929.5 0.1 31
2019-07-23 11:00:00 26.8 9 Sudeste 21 Sudeste 0 929.5 -0.4 42
2019-07-23 10:00:00 25.1 9 Sudeste 15 Sudeste 0 929.5 -1.1 51
2019-07-23 09:00:00 21.1 6 Este 17 Este 0 929.4 -0.7 71
2019-07-23 08:00:00 19.9 11 Este 21 Este 0 929.9 -1.3 74
2019-07-23 07:00:00 19.7 6 Sur 18 Oeste 0 930.6 -0.2 76
2019-07-23 06:00:00 19.3 8 Oeste 21 Sudoeste 0.6 930.1 0.7 78
2019-07-23 05:00:00 19.7 13 Sudoeste 36 Oeste 2 931.2 1.4 75
2019-07-23 04:00:00 24.3 21 Sudoeste 49 Sudoeste 0 930.8 0.1 38
2019-07-23 03:00:00 21.9 15 Este 23 Este 0 929.4 -1.1 51
2019-07-23 02:00:00 22.9 12 Nordeste 24 Este 0 929.8 -0.3 44
2019-07-23 01:00:00 24.4 15 Este 29 Este 0 930.7 1 38
2019-07-23 00:00:00 25 20 Este 46 Este 0 930.5 1.1 36
2019-07-22 23:00:00 23.4 13 Este 18 Este 0 930.1 0.8 54
2019-07-22 22:00:00 23.9 5 Norte 28 Norte 0 929.7 -0.3 56
2019-07-22 21:00:00 25.6 9 Noroeste 23 Noroeste 0 929.4 0.1 52
2019-07-22 20:00:00 25.4 10 Nordeste 30 Nordeste 0.4 929.3 -0.4 49
2019-07-22 19:00:00 28.8 18 Nordeste 46 Este 0.2 930 -0.2 37
2019-07-22 18:00:00 37.8 12 Oeste 24 Sudoeste 0 929.3 -1.6 15
2019-07-22 17:00:00 37.4 6 Sudeste 20 Noroeste 0 929.7 -1.8 15
2019-07-22 16:00:00 37.7 8 Oeste 18 Nordeste 0 930.2 -1.8 15
2019-07-22 15:00:00 36.9 9 Oeste 18 Sudoeste 0 930.9 -1.2 17
2019-07-22 14:00:00 35.1 6 Sudoeste 17 Sudoeste 0 931.5 -0.5 21
2019-07-22 13:00:00 33.6 8 Sudoeste 15 Sudoeste 0 932 0 25
2019-07-22 12:00:00 30.8 5 Noroeste 11 Norte 0 932.1 0.2 32
2019-07-22 11:00:00 27.6 6 Este 14 Nordeste 0 932 0.4 40
2019-07-22 10:00:00 24.6 9 Nordeste 16 Este 0 932 0.6 56
2019-07-22 09:00:00 20.1 9 Este 18 Este 0 931.9 0.6 73
2019-07-22 08:00:00 18.6 11 Nordeste 21 Este 0 931.6 0.3 79
2019-07-22 07:00:00 18.2 10 Nordeste 18 Nordeste 0 931.4 -0.1 77
2019-07-22 06:00:00 18.9 12 Nordeste 20 Nordeste 0 931.3 -0.5 67
2019-07-22 05:00:00 19.6 11 Nordeste 18 Nordeste 0 931.3 -0.7 58
2019-07-22 04:00:00 20 6 Norte 9 Nordeste 0 931.5 -0.6 51
2019-07-22 03:00:00 20.1 5 Este 8 Sur 0 931.8 -0.3 50
2019-07-22 02:00:00 21.6 4 Nordeste 12 Nordeste 0 932 0.2 45
2019-07-22 01:00:00 23.2 9 Nordeste 14 Nordeste 0 932.1 1.1 38
2019-07-22 00:00:00 23.9 9 Norte 14 Norte 0 932.1 1.4 35
2019-07-21 23:00:00 25.5 6 Nordeste 13 Noroeste 0 931.8 1.5 32
2019-07-21 22:00:00 27.9 10 Noroeste 14 Noroeste 0 931 0.8 29
2019-07-21 21:00:00 31.2 8 Noroeste 21 Noroeste 0 930.7 0.3 21
2019-07-21 20:00:00 34.1 14 Noroeste 22 Oeste 0 930.3 -0.4 16
2019-07-21 19:00:00 36.4 15 Oeste 25 Oeste 0 930.2 -0.9 14
2019-07-21 18:00:00 37.1 12 Oeste 23 Sudoeste 0 930.4 -1.1 14
2019-07-21 17:00:00 35.5 5 Sur 23 Oeste 0 930.7 -1.2 14
2019-07-21 16:00:00 33.9 5 Sudeste 19 Sur 0 931.1 -1 20
2019-07-21 15:00:00 33.3 6 Sudoeste 22 Noroeste 0 931.5 -0.6 22
2019-07-21 14:00:00 31.5 7 Norte 20 Nordeste 0 931.9 0.1 30
2019-07-21 13:00:00 30 10 Nordeste 21 Norte 0 932.1 0.4 34
2019-07-21 12:00:00 27.9 8 Este 19 Nordeste 0 932.1 0.6 41
2019-07-21 11:00:00 25.3 9 Nordeste 19 Este 0 931.8 0.7 50
2019-07-21 10:00:00 22.7 13 Este 22 Este 0 931.7 0.8 59
2019-07-21 09:00:00 19.1 9 Nordeste 17 Nordeste 0 931.5 0.6 74
2019-07-21 08:00:00 16.6 9 Nordeste 14 Nordeste 0 931.1 0.1 84
2019-07-21 07:00:00 15.2 6 Norte 14 Nordeste 0 930.9 -0.2 82
2019-07-21 06:00:00 16.7 11 Nordeste 16 Nordeste 0 930.9 -0.4 76
2019-07-21 05:00:00 16.8 4 Nordeste 7 Este 0 931 -0.4 73
2019-07-21 04:00:00 17.6 2 Norte 6 Noroeste 0 931.1 0 72
2019-07-21 03:00:00 18.2 0 Calma 8 Noroeste 0 931.3 0.5 67
2019-07-21 02:00:00 19 7 Noroeste 11 Oeste 0 931.4 1.1 62
2019-07-21 01:00:00 19.9 9 Oeste 12 Oeste 0 931.1 1.8 57
2019-07-21 00:00:00 21.3 7 Noroeste 13 Oeste 0 930.8 2 48
2019-07-20 23:00:00 23.6 10 Noroeste 23 Noroeste 0 930.3 1.8 42
2019-07-20 22:00:00 26.2 17 Noroeste 27 Noroeste 0 929.3 0.9 35
2019-07-20 21:00:00 29.6 17 Noroeste 29 Noroeste 0 928.8 0.2 26
2019-07-20 20:00:00 32.4 9 Noroeste 22 Noroeste 0 928.5 -0.2 20
2019-07-20 19:00:00 33.4 12 Noroeste 28 Oeste 0 928.4 -0.6 20
2019-07-20 18:00:00 34.2 17 Oeste 26 Oeste 0 928.6 -0.5 19
2019-07-20 17:00:00 34.1 12 Oeste 26 Oeste 0 928.7 -0.4 19
2019-07-20 16:00:00 33.8 13 Sudoeste 26 Oeste 0 929 -0.2 20
2019-07-20 15:00:00 33.5 14 Oeste 26 Oeste 0 929.1 0 19
2019-07-20 14:00:00 32 13 Oeste 23 Oeste 0 929.1 0 24
2019-07-20 13:00:00 30.6 12 Oeste 22 Oeste 0 929.2 0.4 27
2019-07-20 12:00:00 28.3 11 Oeste 22 Oeste 0 929.1 0.5 35
2019-07-20 11:00:00 26 11 Oeste 19 Oeste 0 929.1 1 42
2019-07-20 10:00:00 22.8 10 Oeste 16 Noroeste 0 928.8 1 55
2019-07-20 09:00:00 19.6 13 Oeste 18 Oeste 0 928.6 1.1 67
2019-07-20 08:00:00 16.1 5 Oeste 11 Oeste 0 928.1 0.6 77
2019-07-20 07:00:00 14.3 8 Oeste 13 Oeste 0 927.8 0.2 79
2019-07-20 06:00:00 15.2 8 Oeste 9 Oeste 0 927.5 0.1 74
2019-07-20 05:00:00 16.1 6 Sudoeste 9 Sudoeste 0 927.5 0.3 70
2019-07-20 04:00:00 17.4 5 Sudoeste 9 Sudoeste 0 927.6 0.3 68
2019-07-20 03:00:00 18.6 4 Sudoeste 12 Sudoeste 0 927.4 0.4 62
2019-07-20 02:00:00 20 7 Oeste 13 Oeste 0 927.2 0.5 59
2019-07-20 01:00:00 21.4 11 Oeste 16 Oeste 0 927.3 1.3 52
2019-07-20 00:00:00 22.4 10 Oeste 17 Oeste 0 927 1.2 44
2019-07-19 23:00:00 24.5 12 Oeste 18 Oeste 0 926.7 1.5 35
2019-07-19 22:00:00 27 13 Oeste 32 Noroeste 0 926 0.9 34
2019-07-19 21:00:00 30.2 21 Noroeste 36 Noroeste 0 925.8 0.2 27
2019-07-19 20:00:00 32.4 14 Oeste 32 Oeste 0 925.2 -0.8 21
2019-07-19 19:00:00 35.3 21 Oeste 32 Oeste 0 925.1 -1.3 17
2019-07-19 18:00:00 34.9 10 Sudoeste 28 Oeste 0 925.6 -1.4 18
2019-07-19 17:00:00 35.5 10 Noroeste 28 Oeste 0 926 -1.6 17
2019-07-19 16:00:00 36.2 12 Oeste 31 Oeste 0 926.4 -1.4 16
2019-07-19 15:00:00 34.7 10 Sudoeste 26 Oeste 0 927 -1.1 19
2019-07-19 14:00:00 34.5 12 Oeste 23 Oeste 0 927.6 -0.7 20
2019-07-19 13:00:00 31.1 6 Sur 15 Sudeste 0 927.8 -0.7 22
2019-07-19 12:00:00 28.6 3 Norte 12 Este 0 928.1 -0.3 28
2019-07-19 11:00:00 26.1 6 Nordeste 16 Este 0 928.3 0.3 35
2019-07-19 10:00:00 22.7 9 Nordeste 14 Nordeste 0 928.5 0.5 48
2019-07-19 09:00:00 19 8 Nordeste 15 Nordeste 0 928.4 0.5 60
2019-07-19 08:00:00 16.1 5 Nordeste 9 Nordeste 0 928 -0.2 68
2019-07-19 07:00:00 14.9 5 Norte 12 Norte 0 928 -0.4 70
2019-07-19 06:00:00 16.2 8 Norte 12 Norte 0 927.9 -0.8 66
2019-07-19 05:00:00 17.6 5 Norte 9 Norte 0 928.2 -0.6 60
2019-07-19 04:00:00 18.3 7 Nordeste 12 Nordeste 0 928.4 -0.3 58
2019-07-19 03:00:00 19.2 3 Nordeste 10 Norte 0 928.7 0.1 54
2019-07-19 02:00:00 19.6 6 Noroeste 13 Nordeste 0 928.8 0.6 52
2019-07-19 01:00:00 21.2 5 Norte 12 Norte 0 928.7 1 48
2019-07-19 00:00:00 22.5 8 Norte 17 Noroeste 0 928.6 1.1 43